createdAt,value
2017-07-24T00:00:09.495Z,17.79
2017-07-24T00:02:38.594Z,17.77
2017-07-24T00:05:07.828Z,17.73
2017-07-24T00:07:36.903Z,17.70
2017-07-24T00:10:06.005Z,17.66
2017-07-24T00:12:35.060Z,17.61
2017-07-24T00:15:04.145Z,17.58
2017-07-24T00:17:33.209Z,17.57
2017-07-24T00:20:02.279Z,17.53
2017-07-24T00:22:31.348Z,17.47
2017-07-24T00:25:00.432Z,17.44
2017-07-24T00:27:29.475Z,17.43
2017-07-24T00:29:58.541Z,17.43
2017-07-24T00:32:28.351Z,17.43
2017-07-24T00:34:58.194Z,17.42
2017-07-24T00:37:27.455Z,17.40
2017-07-24T00:39:56.634Z,17.38
2017-07-24T00:42:25.764Z,17.37
2017-07-24T00:44:55.581Z,17.37
2017-07-24T00:47:25.412Z,17.34
2017-07-24T00:49:54.547Z,17.34
2017-07-24T00:52:23.580Z,17.36
2017-07-24T00:54:52.639Z,17.37
2017-07-24T00:57:21.692Z,17.35
2017-07-24T00:59:50.769Z,17.36
2017-07-24T01:02:20.968Z,17.37
2017-07-24T01:04:50.019Z,17.33
2017-07-24T01:07:19.067Z,17.36
2017-07-24T01:09:48.880Z,17.35
2017-07-24T01:12:17.989Z,17.37
2017-07-24T01:14:47.004Z,17.37
2017-07-24T01:17:16.096Z,17.35
2017-07-24T01:19:46.108Z,17.36
2017-07-24T01:22:15.180Z,17.37
2017-07-24T01:24:44.212Z,17.38
2017-07-24T01:27:13.313Z,17.39
2017-07-24T01:29:42.393Z,17.40
2017-07-24T01:32:11.439Z,17.39
2017-07-24T01:34:40.517Z,17.42
2017-07-24T01:37:09.961Z,17.42
2017-07-24T01:39:39.794Z,17.40
2017-07-24T01:42:08.857Z,17.37
2017-07-24T01:44:37.915Z,17.36
2017-07-24T01:47:07.014Z,17.36
2017-07-24T01:49:36.113Z,17.36
2017-07-24T01:52:05.184Z,17.37
2017-07-24T01:54:34.233Z,17.35
2017-07-24T01:57:03.346Z,17.37
2017-07-24T01:59:32.511Z,17.38
2017-07-24T02:02:01.580Z,17.39
2017-07-24T02:04:30.635Z,17.41
2017-07-24T02:06:59.671Z,17.41
2017-07-24T02:09:28.727Z,17.40
2017-07-24T02:11:57.797Z,17.38
2017-07-24T02:14:26.863Z,17.37
2017-07-24T02:16:55.903Z,17.38
2017-07-24T02:19:25.765Z,17.39
2017-07-24T02:21:54.805Z,17.39
2017-07-24T02:24:24.624Z,17.39
2017-07-24T02:26:53.667Z,17.36
2017-07-24T02:29:22.734Z,17.32
2017-07-24T02:31:51.808Z,17.31
2017-07-24T02:34:21.612Z,17.32
2017-07-24T02:36:50.706Z,17.33
2017-07-24T02:39:19.734Z,17.31
2017-07-24T02:41:48.801Z,17.33
2017-07-24T02:44:17.839Z,17.34
2017-07-24T02:46:46.887Z,17.36
2017-07-24T02:49:16.715Z,17.36
2017-07-24T02:51:45.781Z,17.30
2017-07-24T02:54:14.854Z,17.29
2017-07-24T02:56:43.902Z,17.28
2017-07-24T02:59:13.739Z,17.27
2017-07-24T03:01:42.796Z,17.24
2017-07-24T03:04:12.761Z,17.22
2017-07-24T03:06:41.775Z,17.21
2017-07-24T03:09:10.862Z,17.21
2017-07-24T03:11:39.917Z,17.24
2017-07-24T03:14:09.153Z,17.20
2017-07-24T03:16:38.241Z,17.15
2017-07-24T03:19:07.540Z,17.10
2017-07-24T03:21:36.651Z,17.05
2017-07-24T03:24:05.738Z,16.97
2017-07-24T03:26:34.829Z,16.93
2017-07-24T03:29:03.907Z,16.94
2017-07-24T03:31:33.165Z,16.90
2017-07-24T03:34:02.209Z,16.89
2017-07-24T03:36:31.269Z,16.85
2017-07-24T03:39:00.345Z,16.82
2017-07-24T03:41:29.411Z,16.77
2017-07-24T03:43:58.453Z,16.75
2017-07-24T03:46:27.520Z,16.74
2017-07-24T03:48:56.570Z,16.71
2017-07-24T03:51:25.640Z,16.70
2017-07-24T03:53:54.692Z,16.69
2017-07-24T03:56:23.788Z,16.66
2017-07-24T03:58:52.884Z,16.64
2017-07-24T04:01:21.943Z,16.64
2017-07-24T04:03:51.005Z,16.59
2017-07-24T04:06:20.072Z,16.53
2017-07-24T04:08:49.145Z,16.50
2017-07-24T04:11:18.185Z,16.47
2017-07-24T04:13:48.008Z,16.44
2017-07-24T04:16:17.840Z,16.40
2017-07-24T04:18:46.908Z,16.35
2017-07-24T04:21:16.733Z,16.35
2017-07-24T04:23:45.775Z,16.34
2017-07-24T04:26:14.837Z,16.29
2017-07-24T04:28:43.894Z,16.29
2017-07-24T04:31:12.958Z,16.29
2017-07-24T04:33:42.013Z,16.30
2017-07-24T04:36:11.088Z,16.32
2017-07-24T04:38:40.956Z,16.34
2017-07-24T04:41:10.016Z,16.34
2017-07-24T04:43:39.086Z,16.34
2017-07-24T04:46:08.137Z,16.38
2017-07-24T04:48:37.196Z,16.39
2017-07-24T04:51:06.991Z,16.40
2017-07-24T04:53:36.808Z,16.39
2017-07-24T04:56:06.668Z,16.36
2017-07-24T04:58:35.700Z,16.35
2017-07-24T05:01:04.779Z,16.38
2017-07-24T05:03:33.829Z,16.42
2017-07-24T05:06:02.879Z,16.44
2017-07-24T05:08:31.964Z,16.43
2017-07-24T05:11:01.010Z,16.50
2017-07-24T05:13:30.083Z,16.55
2017-07-24T05:15:59.987Z,16.55
2017-07-24T05:18:29.035Z,16.54
2017-07-24T05:20:58.083Z,16.58
2017-07-24T05:23:27.904Z,16.59
2017-07-24T05:25:57.731Z,16.57
2017-07-24T05:28:26.796Z,16.58
2017-07-24T05:30:55.855Z,16.59
2017-07-24T05:33:24.905Z,16.60
2017-07-24T05:35:53.981Z,16.61
2017-07-24T05:38:23.045Z,16.60
2017-07-24T05:40:52.105Z,16.59
2017-07-24T05:43:21.179Z,16.63
2017-07-24T05:45:50.243Z,16.63
2017-07-24T05:48:19.324Z,16.64
2017-07-24T05:50:48.356Z,16.63
2017-07-24T05:53:18.226Z,16.61
2017-07-24T05:55:47.284Z,16.58
2017-07-24T05:58:16.329Z,16.59
2017-07-24T06:00:46.145Z,16.59
2017-07-24T06:03:15.849Z,16.61
2017-07-24T06:05:44.923Z,16.64
2017-07-24T06:08:13.994Z,16.64
2017-07-24T06:10:43.055Z,16.66
2017-07-24T06:13:12.132Z,16.70
2017-07-24T06:15:41.172Z,16.74
2017-07-24T06:18:10.550Z,16.75
2017-07-24T06:20:39.593Z,16.77
2017-07-24T06:23:08.644Z,16.75
2017-07-24T06:25:38.452Z,16.75
2017-07-24T06:28:08.303Z,16.76
2017-07-24T06:30:37.395Z,16.77
2017-07-24T06:33:06.459Z,16.78
2017-07-24T06:35:36.280Z,16.79
2017-07-24T06:38:06.100Z,16.82
2017-07-24T06:40:35.199Z,16.80
2017-07-24T06:43:04.272Z,16.81
2017-07-24T06:45:33.320Z,16.84
2017-07-24T06:48:02.451Z,16.89
2017-07-24T06:50:31.522Z,16.92
2017-07-24T06:53:00.622Z,16.99
2017-07-24T06:55:29.679Z,17.05
2017-07-24T06:57:58.768Z,17.09
2017-07-24T07:00:27.816Z,17.07
2017-07-24T07:02:56.865Z,17.09
2017-07-24T07:05:25.953Z,17.09
2017-07-24T07:07:54.991Z,17.12
2017-07-24T07:10:24.085Z,17.12
2017-07-24T07:12:53.105Z,17.12
2017-07-24T07:15:22.142Z,17.12
2017-07-24T07:17:51.203Z,17.12
2017-07-24T07:20:21.332Z,17.16
2017-07-24T07:22:51.160Z,17.17
2017-07-24T07:25:20.687Z,17.19
2017-07-24T07:27:49.770Z,17.22
2017-07-24T07:30:18.840Z,17.28
2017-07-24T07:32:48.656Z,17.32
2017-07-24T07:35:18.712Z,17.28
2017-07-24T07:37:47.774Z,17.29
2017-07-24T07:40:16.903Z,17.27
2017-07-24T07:42:45.919Z,17.32
2017-07-24T07:45:15.762Z,17.36
2017-07-24T07:47:44.865Z,17.32
2017-07-24T07:50:14.691Z,17.38
2017-07-24T07:52:44.813Z,17.35
2017-07-24T07:55:14.657Z,17.36
2017-07-24T07:57:43.901Z,17.40
2017-07-24T08:00:12.980Z,17.42
2017-07-24T08:02:42.016Z,17.36
2017-07-24T08:05:11.117Z,17.31
2017-07-24T08:07:40.882Z,17.26
2017-07-24T08:10:09.956Z,17.23
2017-07-24T08:12:39.032Z,17.19
2017-07-24T08:15:08.218Z,17.18
2017-07-24T08:17:37.295Z,17.16
2017-07-24T08:20:07.121Z,17.15
2017-07-24T08:22:39.856Z,17.14
2017-07-24T08:25:16.613Z,17.19
2017-07-24T08:27:48.852Z,17.22
2017-07-24T08:30:17.966Z,17.23
2017-07-24T08:32:47.044Z,17.27
2017-07-24T08:35:16.095Z,17.33
2017-07-24T08:37:45.886Z,17.33
2017-07-24T08:40:14.944Z,17.34
2017-07-24T08:42:45.472Z,17.39
2017-07-24T08:45:14.546Z,17.41
2017-07-24T08:47:45.040Z,17.38
2017-07-24T08:50:14.917Z,17.32
2017-07-24T08:52:44.016Z,17.35
2017-07-24T08:55:13.050Z,17.45
2017-07-24T08:57:42.108Z,17.54
2017-07-24T09:00:14.637Z,17.56
2017-07-24T09:02:43.693Z,17.53
2017-07-24T09:05:13.506Z,17.61
2017-07-24T09:07:43.265Z,17.69
2017-07-24T09:10:13.093Z,17.77
2017-07-24T09:12:42.164Z,17.83
2017-07-24T09:21:08.894Z,17.91
2017-07-24T09:23:37.980Z,17.98
2017-07-24T09:26:07.110Z,18.04
2017-07-24T09:28:36.973Z,18.10
2017-07-24T09:31:06.078Z,18.11
2017-07-24T09:33:35.149Z,18.01
2017-07-24T09:36:04.193Z,17.86
2017-07-24T09:38:33.256Z,17.79
2017-07-24T09:41:03.287Z,17.79
2017-07-24T09:43:33.499Z,17.86
2017-07-24T09:46:04.165Z,17.87
2017-07-24T09:48:33.480Z,17.97
2017-07-24T09:51:02.572Z,18.06
2017-07-24T09:53:31.652Z,18.11
2017-07-24T09:56:00.736Z,18.16
2017-07-24T09:58:29.784Z,18.11
2017-07-24T10:00:59.171Z,17.98
2017-07-24T10:03:28.256Z,17.91
2017-07-24T10:05:57.349Z,17.71
2017-07-24T10:08:26.543Z,17.57
2017-07-24T10:10:55.580Z,17.39
2017-07-24T10:13:25.419Z,17.39
2017-07-24T10:15:54.476Z,17.35
2017-07-24T10:18:24.287Z,17.43
2017-07-24T10:20:54.113Z,17.37
2017-07-24T10:23:24.300Z,17.23
2017-07-24T10:25:53.343Z,17.02
2017-07-24T10:28:22.406Z,17.07
2017-07-24T10:30:51.458Z,17.07
2017-07-24T10:33:20.610Z,17.17
2017-07-24T10:35:49.727Z,17.14
2017-07-24T10:38:19.055Z,17.21
2017-07-24T10:40:48.119Z,17.29
2017-07-24T10:43:17.243Z,17.38
2017-07-24T10:45:46.296Z,17.48
2017-07-24T10:48:16.167Z,17.58
2017-07-24T10:50:45.224Z,17.72
2017-07-24T10:53:14.322Z,17.78
2017-07-24T10:55:43.367Z,17.82
2017-07-24T10:58:12.477Z,17.79
2017-07-24T11:00:41.527Z,17.68
2017-07-24T11:03:10.677Z,17.75
2017-07-24T11:05:39.732Z,17.94
2017-07-24T11:08:08.821Z,18.03
2017-07-24T11:10:37.903Z,18.01
2017-07-24T11:13:07.224Z,18.03
2017-07-24T11:15:36.272Z,18.06
2017-07-24T11:18:05.367Z,18.13
2017-07-24T11:20:34.454Z,18.20
2017-07-24T11:23:04.255Z,18.13
2017-07-24T11:25:34.085Z,18.02
2017-07-24T11:28:04.164Z,17.96
2017-07-24T11:30:33.241Z,17.88
2017-07-24T11:33:02.316Z,17.81
2017-07-24T11:35:31.468Z,17.61
2017-07-24T11:38:00.563Z,17.50
2017-07-24T11:40:30.442Z,17.42
2017-07-24T11:42:59.561Z,17.32
2017-07-24T11:45:28.600Z,17.34
2017-07-24T11:47:57.694Z,17.34
2017-07-24T11:50:26.769Z,17.37
2017-07-24T11:52:55.840Z,17.30
2017-07-24T11:55:25.529Z,17.40
2017-07-24T11:57:54.624Z,17.46
2017-07-24T12:00:23.680Z,17.48
2017-07-24T12:02:53.499Z,17.58
2017-07-24T12:05:22.551Z,17.63
2017-07-24T12:07:51.645Z,17.64
2017-07-24T12:10:20.933Z,17.63
2017-07-24T12:12:49.999Z,17.71
2017-07-24T12:15:19.068Z,17.85
2017-07-24T12:17:48.425Z,17.89
2017-07-24T12:20:17.491Z,17.92
2017-07-24T12:22:47.079Z,17.91
2017-07-24T12:25:16.885Z,17.94
2017-07-24T12:27:45.958Z,17.87
2017-07-24T12:30:15.353Z,17.79
2017-07-24T12:32:44.440Z,17.76
2017-07-24T12:35:13.497Z,17.78
2017-07-24T12:37:46.687Z,17.92
2017-07-24T12:43:47.893Z,18.16
2017-07-24T12:46:16.967Z,18.35
2017-07-24T12:48:46.955Z,18.38
2017-07-24T13:00:32.432Z,18.30
2017-07-24T13:03:01.491Z,18.38
2017-07-24T13:05:30.563Z,18.46
2017-07-24T13:08:00.866Z,18.60
2017-07-24T13:10:29.946Z,18.69
2017-07-24T13:12:59.107Z,18.75
2017-07-24T13:15:28.317Z,18.79
2017-07-24T13:17:57.472Z,18.81
2017-07-24T13:20:27.356Z,18.83
2017-07-24T13:22:56.428Z,18.91
2017-07-24T13:25:25.532Z,18.89
2017-07-24T13:27:54.585Z,18.86
2017-07-24T13:30:24.472Z,18.90
2017-07-24T13:32:54.404Z,18.98
2017-07-24T13:35:24.268Z,19.11
2017-07-24T13:37:53.321Z,19.02
2017-07-24T13:40:23.920Z,19.05
2017-07-24T13:45:31.133Z,19.04
2017-07-24T13:48:00.168Z,19.05
2017-07-24T13:50:29.256Z,19.11
2017-07-24T13:52:58.306Z,19.20
2017-07-24T13:55:27.366Z,19.30
2017-07-24T13:57:56.425Z,19.31
2017-07-24T14:00:26.239Z,19.15
2017-07-24T14:02:56.149Z,19.17
2017-07-24T14:05:25.193Z,19.23
2017-07-24T14:07:54.286Z,19.21
2017-07-24T14:10:23.395Z,19.29
2017-07-24T14:12:52.444Z,19.34
2017-07-24T14:15:21.509Z,19.23
2017-07-24T14:17:50.555Z,19.15
2017-07-24T14:20:19.610Z,19.08
2017-07-24T14:22:49.448Z,19.10
2017-07-24T14:25:18.522Z,19.04
2017-07-24T14:28:08.176Z,19.06
2017-07-24T14:30:37.225Z,19.05
2017-07-24T14:33:06.311Z,18.98
2017-07-24T14:35:35.336Z,18.86
2017-07-24T14:38:04.428Z,18.86
2017-07-24T14:40:33.482Z,18.83
2017-07-24T14:43:02.523Z,18.86
2017-07-24T14:45:31.598Z,18.77
2017-07-24T14:48:00.651Z,18.65
2017-07-24T14:50:29.730Z,18.75
2017-07-24T14:52:58.777Z,18.75
2017-07-24T14:55:27.836Z,18.60
2017-07-24T14:57:56.895Z,18.56
2017-07-24T15:00:25.957Z,18.60
2017-07-24T15:02:55.156Z,18.43
2017-07-24T15:05:24.224Z,18.49
2017-07-24T15:07:53.255Z,18.57
2017-07-24T15:10:22.363Z,18.57
2017-07-24T15:12:51.442Z,18.55
2017-07-24T15:15:20.507Z,18.47
2017-07-24T15:17:49.568Z,18.41
2017-07-24T15:20:18.652Z,18.37
2017-07-24T15:22:47.698Z,18.31
2017-07-24T15:25:16.763Z,18.30
2017-07-24T15:27:45.839Z,18.32
2017-07-24T15:30:14.878Z,18.35
2017-07-24T15:32:44.047Z,18.42
2017-07-24T15:35:13.403Z,18.39
2017-07-24T15:37:42.440Z,18.34
2017-07-24T15:40:11.585Z,18.28
2017-07-24T15:42:40.603Z,18.23
2017-07-24T15:45:09.665Z,18.18
2017-07-24T15:47:38.699Z,18.18
2017-07-24T15:50:07.759Z,18.19
2017-07-24T15:52:36.833Z,18.21
2017-07-24T15:55:05.924Z,18.30
2017-07-24T15:57:34.955Z,18.38
2017-07-24T16:00:04.100Z,18.44
2017-07-24T16:02:33.178Z,18.53
2017-07-24T16:05:02.228Z,18.61
2017-07-24T16:07:31.313Z,18.49
2017-07-24T16:10:00.368Z,18.57
2017-07-24T16:12:29.420Z,18.69
2017-07-24T16:14:58.471Z,18.77
2017-07-24T16:17:27.516Z,18.78
2017-07-24T16:19:56.560Z,18.74
2017-07-24T16:22:25.625Z,18.83
2017-07-24T16:24:54.673Z,18.76
2017-07-24T16:27:23.724Z,18.82
2017-07-24T16:29:52.766Z,18.72
2017-07-24T16:32:21.827Z,18.63
2017-07-24T16:34:50.893Z,18.56
2017-07-24T16:37:19.984Z,18.56
2017-07-24T16:39:49.040Z,18.42
2017-07-24T16:42:18.127Z,18.28
2017-07-24T16:44:47.213Z,18.19
2017-07-24T16:47:16.285Z,18.04
2017-07-24T16:49:45.339Z,17.95
2017-07-24T16:52:14.725Z,17.93
2017-07-24T16:54:43.756Z,17.91
2017-07-24T16:57:12.799Z,17.82
2017-07-24T16:59:41.863Z,17.62
2017-07-24T17:02:10.935Z,17.39
2017-07-24T17:04:39.956Z,17.27
2017-07-24T17:07:09.095Z,17.20
2017-07-24T17:09:38.163Z,17.17
2017-07-24T17:12:07.263Z,17.02
2017-07-24T17:14:36.324Z,16.94
2017-07-24T17:17:05.513Z,16.82
2017-07-24T17:19:34.584Z,16.71
2017-07-24T17:22:03.689Z,16.60
2017-07-24T17:24:32.747Z,16.64
2017-07-24T17:27:01.808Z,16.59
2017-07-24T17:29:30.859Z,16.48
2017-07-24T17:31:59.928Z,16.46
2017-07-24T17:34:29.052Z,16.47
2017-07-24T17:36:58.277Z,16.40
2017-07-24T17:39:27.319Z,16.30
2017-07-24T17:41:56.378Z,16.24
2017-07-24T17:44:25.425Z,16.27
2017-07-24T17:46:54.493Z,16.27
2017-07-24T17:49:23.578Z,16.33
2017-07-24T17:51:52.635Z,16.39
2017-07-24T17:54:21.699Z,16.44
2017-07-24T17:56:50.863Z,16.45
2017-07-24T17:59:19.922Z,16.51
2017-07-24T18:01:49.005Z,16.56
2017-07-24T18:04:18.074Z,16.53
2017-07-24T18:06:47.125Z,16.49
2017-07-24T18:09:16.232Z,16.36
2017-07-24T18:11:45.273Z,16.29
2017-07-24T18:14:14.360Z,16.27
2017-07-24T18:16:43.405Z,16.20
2017-07-24T18:19:12.485Z,16.09
2017-07-24T18:21:41.538Z,15.99
2017-07-24T18:24:10.632Z,15.92
2017-07-24T18:26:39.650Z,15.87
2017-07-24T18:29:08.822Z,15.95
2017-07-24T18:31:37.912Z,15.95
2017-07-24T18:34:06.997Z,15.98
2017-07-24T18:36:36.044Z,16.04
2017-07-24T18:39:05.087Z,16.11
2017-07-24T18:41:34.135Z,16.22
2017-07-24T18:44:03.215Z,16.28
2017-07-24T18:46:32.273Z,16.34
2017-07-24T18:49:01.300Z,16.38
2017-07-24T18:51:30.372Z,16.37
2017-07-24T18:53:59.431Z,16.34
2017-07-24T18:56:28.488Z,16.35
2017-07-24T18:58:57.561Z,16.38
2017-07-24T19:01:26.604Z,16.43
2017-07-24T19:03:55.694Z,16.49
2017-07-24T19:06:24.752Z,16.54
2017-07-24T19:08:53.816Z,16.56
2017-07-24T19:11:22.897Z,16.52
2017-07-24T19:13:52.061Z,16.53
2017-07-24T19:16:21.091Z,16.48
2017-07-24T19:18:50.295Z,16.46
2017-07-24T19:21:19.356Z,16.41
2017-07-24T19:23:48.468Z,16.45
2017-07-24T19:26:17.573Z,16.43
2017-07-24T19:28:46.602Z,16.41
2017-07-24T19:31:15.637Z,16.42
2017-07-24T19:33:44.712Z,16.46
2017-07-24T19:36:13.834Z,16.55
2017-07-24T19:38:42.875Z,16.55
2017-07-24T19:41:11.927Z,16.56
2017-07-24T19:43:41.010Z,16.56
2017-07-24T19:46:10.044Z,16.55
2017-07-24T19:48:39.137Z,16.49
2017-07-24T19:51:08.194Z,16.48
2017-07-24T19:53:37.346Z,16.44
2017-07-24T19:56:06.450Z,16.38
2017-07-24T19:58:35.468Z,16.31
2017-07-24T20:01:04.522Z,16.29
2017-07-24T20:03:33.584Z,16.28
2017-07-24T20:06:02.702Z,16.26
2017-07-24T20:08:31.756Z,16.27
2017-07-24T20:11:00.960Z,16.28
2017-07-24T20:13:30.003Z,16.30
2017-07-24T20:15:59.114Z,16.28
2017-07-24T20:18:28.192Z,16.28
2017-07-24T20:20:57.268Z,16.25
2017-07-24T20:23:26.559Z,16.24
2017-07-24T20:25:55.740Z,16.23
2017-07-24T20:28:24.795Z,16.21
2017-07-24T20:30:53.890Z,16.24
2017-07-24T20:33:22.939Z,16.24
2017-07-24T20:35:52.048Z,16.21
2017-07-24T20:38:21.176Z,16.18
2017-07-24T20:40:50.224Z,16.14
2017-07-24T20:43:19.339Z,16.13
2017-07-24T20:45:48.400Z,16.17
2017-07-24T20:48:17.496Z,16.20
2017-07-24T20:50:46.543Z,16.23
2017-07-24T20:53:15.631Z,16.23
2017-07-24T20:55:44.996Z,16.25
2017-07-24T20:58:14.193Z,16.30
2017-07-24T21:00:43.233Z,16.34
2017-07-24T21:03:12.426Z,16.40
2017-07-24T21:05:41.511Z,16.45
2017-07-24T21:08:10.560Z,16.52
2017-07-24T21:10:39.635Z,16.51
2017-07-24T21:13:08.685Z,16.41
2017-07-24T21:15:37.746Z,16.35
2017-07-24T21:18:06.803Z,16.33
2017-07-24T21:20:35.879Z,16.33
2017-07-24T21:23:04.960Z,16.33
2017-07-24T21:25:34.032Z,16.37
2017-07-24T21:28:03.109Z,16.41
2017-07-24T21:30:32.205Z,16.43
2017-07-24T21:33:01.273Z,16.48
2017-07-24T21:35:30.352Z,16.53
2017-07-24T21:37:59.456Z,16.52
2017-07-24T21:40:28.521Z,16.44
2017-07-24T21:42:57.612Z,16.44
2017-07-24T21:45:26.704Z,16.43
2017-07-24T21:47:55.787Z,16.43
2017-07-24T21:50:24.879Z,16.38
2017-07-24T21:52:53.928Z,16.34
2017-07-24T21:55:23.034Z,16.26
2017-07-24T21:57:52.082Z,16.17
2017-07-24T22:00:21.204Z,16.20
2017-07-24T22:02:50.279Z,16.26
2017-07-24T22:05:19.483Z,16.30
2017-07-24T22:07:48.535Z,16.35
2017-07-24T22:10:17.634Z,16.40
2017-07-24T22:12:46.684Z,16.40
2017-07-24T22:15:15.942Z,16.38
2017-07-24T22:17:45.008Z,16.43
2017-07-24T22:20:14.136Z,16.45
2017-07-24T22:22:43.175Z,16.39
2017-07-24T22:25:12.471Z,16.37
2017-07-24T22:27:41.544Z,16.36
2017-07-24T22:30:10.642Z,16.31
2017-07-24T22:32:39.740Z,16.18
2017-07-24T22:35:08.811Z,16.25
2017-07-24T22:37:37.919Z,16.29
2017-07-24T22:40:06.970Z,16.33
2017-07-24T22:42:36.074Z,16.31
2017-07-24T22:45:05.136Z,16.29
2017-07-24T22:47:34.195Z,16.37
2017-07-24T22:50:03.304Z,16.41
2017-07-24T22:52:32.346Z,16.34
2017-07-24T22:55:01.399Z,16.33
2017-07-24T22:57:30.492Z,16.37
2017-07-24T22:59:59.546Z,16.42
2017-07-24T23:02:28.632Z,16.39
2017-07-24T23:04:57.708Z,16.37
2017-07-24T23:07:26.751Z,16.30
2017-07-24T23:09:55.864Z,16.23
2017-07-24T23:12:24.912Z,16.20
2017-07-24T23:14:53.965Z,16.15
2017-07-24T23:17:23.002Z,16.06
2017-07-24T23:19:52.127Z,16.02
2017-07-24T23:22:21.187Z,15.97
2017-07-24T23:24:50.251Z,16.00
2017-07-24T23:27:19.328Z,15.96
2017-07-24T23:29:48.395Z,15.97
2017-07-24T23:32:20.381Z,15.99
2017-07-24T23:34:49.428Z,15.99
2017-07-24T23:37:18.520Z,15.99
2017-07-24T23:39:47.555Z,15.94
2017-07-24T23:42:16.627Z,15.89
2017-07-24T23:44:45.715Z,16.00
2017-07-24T23:47:14.803Z,16.05
2017-07-24T23:49:43.833Z,16.11
2017-07-24T23:52:12.909Z,16.17
2017-07-24T23:54:41.981Z,16.22
2017-07-24T23:57:11.061Z,16.07
2017-07-24T23:59:40.123Z,16.13
